sensor_id;sensor_type;location;lat;lon;timestamp;P1;durP1;ratioP1;P2;durP2;ratioP2
20336;SDS011;10326;53.660;10.200;2024-01-27T00:00:27;16.42;;;4.25;;
20336;SDS011;10326;53.660;10.200;2024-01-27T00:02:54;18.50;;;4.85;;
20336;SDS011;10326;53.660;10.200;2024-01-27T00:05:22;20.83;;;4.55;;
20336;SDS011;10326;53.660;10.200;2024-01-27T00:07:50;20.33;;;4.57;;
20336;SDS011;10326;53.660;10.200;2024-01-27T00:10:17;20.60;;;4.15;;
20336;SDS011;10326;53.660;10.200;2024-01-27T00:12:44;17.80;;;4.07;;
20336;SDS011;10326;53.660;10.200;2024-01-27T00:15:11;19.45;;;4.55;;
20336;SDS011;10326;53.660;10.200;2024-01-27T00:17:38;24.15;;;4.47;;
20336;SDS011;10326;53.660;10.200;2024-01-27T00:20:06;19.85;;;4.40;;
20336;SDS011;10326;53.660;10.200;2024-01-27T00:22:35;16.38;;;4.53;;
20336;SDS011;10326;53.660;10.200;2024-01-27T00:25:03;20.88;;;5.10;;
20336;SDS011;10326;53.660;10.200;2024-01-27T00:27:31;15.00;;;3.92;;
20336;SDS011;10326;53.660;10.200;2024-01-27T00:29:58;22.98;;;5.18;;
20336;SDS011;10326;53.660;10.200;2024-01-27T00:32:25;23.00;;;4.85;;
20336;SDS011;10326;53.660;10.200;2024-01-27T00:34:53;16.98;;;4.15;;
20336;SDS011;10326;53.660;10.200;2024-01-27T00:37:20;18.98;;;4.15;;
20336;SDS011;10326;53.660;10.200;2024-01-27T00:39:48;20.50;;;4.00;;
20336;SDS011;10326;53.660;10.200;2024-01-27T00:42:15;23.60;;;4.88;;
20336;SDS011;10326;53.660;10.200;2024-01-27T00:44:44;22.10;;;4.60;;
20336;SDS011;10326;53.660;10.200;2024-01-27T00:47:11;22.77;;;4.20;;
20336;SDS011;10326;53.660;10.200;2024-01-27T00:49:39;18.60;;;4.38;;
20336;SDS011;10326;53.660;10.200;2024-01-27T00:52:06;15.98;;;4.22;;
20336;SDS011;10326;53.660;10.200;2024-01-27T00:54:33;18.63;;;3.63;;
20336;SDS011;10326;53.660;10.200;2024-01-27T00:57:01;18.55;;;4.32;;
20336;SDS011;10326;53.660;10.200;2024-01-27T00:59:29;17.52;;;4.00;;
20336;SDS011;10326;53.660;10.200;2024-01-27T01:01:57;23.05;;;4.40;;
20336;SDS011;10326;53.660;10.200;2024-01-27T01:04:24;18.92;;;4.00;;
20336;SDS011;10326;53.660;10.200;2024-01-27T01:06:51;24.83;;;4.78;;
20336;SDS011;10326;53.660;10.200;2024-01-27T01:09:18;17.13;;;4.13;;
20336;SDS011;10326;53.660;10.200;2024-01-27T01:11:46;22.08;;;4.63;;
20336;SDS011;10326;53.660;10.200;2024-01-27T01:14:14;17.98;;;4.38;;
20336;SDS011;10326;53.660;10.200;2024-01-27T01:16:42;21.63;;;5.05;;
20336;SDS011;10326;53.660;10.200;2024-01-27T01:19:09;16.23;;;4.03;;
20336;SDS011;10326;53.660;10.200;2024-01-27T01:21:37;16.95;;;4.15;;
20336;SDS011;10326;53.660;10.200;2024-01-27T01:24:04;23.38;;;4.43;;
20336;SDS011;10326;53.660;10.200;2024-01-27T01:26:31;19.05;;;4.85;;
20336;SDS011;10326;53.660;10.200;2024-01-27T01:28:58;20.20;;;4.28;;
20336;SDS011;10326;53.660;10.200;2024-01-27T01:31:27;18.67;;;3.67;;
20336;SDS011;10326;53.660;10.200;2024-01-27T01:33:54;19.48;;;4.35;;
20336;SDS011;10326;53.660;10.200;2024-01-27T01:36:22;21.20;;;4.70;;
20336;SDS011;10326;53.660;10.200;2024-01-27T01:38:49;19.55;;;4.28;;
20336;SDS011;10326;53.660;10.200;2024-01-27T01:41:16;24.88;;;4.57;;
20336;SDS011;10326;53.660;10.200;2024-01-27T01:43:43;19.80;;;3.70;;
20336;SDS011;10326;53.660;10.200;2024-01-27T01:46:10;20.50;;;4.10;;
20336;SDS011;10326;53.660;10.200;2024-01-27T01:48:39;16.95;;;4.22;;
20336;SDS011;10326;53.660;10.200;2024-01-27T01:51:06;17.33;;;4.00;;
20336;SDS011;10326;53.660;10.200;2024-01-27T01:53:34;21.60;;;4.20;;
20336;SDS011;10326;53.660;10.200;2024-01-27T01:56:02;20.42;;;4.93;;
20336;SDS011;10326;53.660;10.200;2024-01-27T01:58:31;18.88;;;3.95;;
20336;SDS011;10326;53.660;10.200;2024-01-27T02:01:00;19.42;;;4.35;;
20336;SDS011;10326;53.660;10.200;2024-01-27T02:03:27;20.50;;;4.78;;
20336;SDS011;10326;53.660;10.200;2024-01-27T02:05:56;23.02;;;4.63;;
20336;SDS011;10326;53.660;10.200;2024-01-27T02:08:23;17.08;;;4.10;;
20336;SDS011;10326;53.660;10.200;2024-01-27T02:10:50;22.98;;;4.82;;
20336;SDS011;10326;53.660;10.200;2024-01-27T02:13:18;22.25;;;4.55;;
20336;SDS011;10326;53.660;10.200;2024-01-27T02:15:47;20.58;;;3.85;;
20336;SDS011;10326;53.660;10.200;2024-01-27T02:18:16;18.85;;;3.90;;
20336;SDS011;10326;53.660;10.200;2024-01-27T02:20:43;21.63;;;4.95;;
20336;SDS011;10326;53.660;10.200;2024-01-27T02:23:12;22.77;;;4.90;;
20336;SDS011;10326;53.660;10.200;2024-01-27T02:25:41;16.73;;;4.05;;
20336;SDS011;10326;53.660;10.200;2024-01-27T02:28:08;16.52;;;4.28;;
20336;SDS011;10326;53.660;10.200;2024-01-27T02:30:35;18.67;;;4.13;;
20336;SDS011;10326;53.660;10.200;2024-01-27T02:33:02;19.45;;;4.38;;
20336;SDS011;10326;53.660;10.200;2024-01-27T02:35:34;24.00;;;4.85;;
20336;SDS011;10326;53.660;10.200;2024-01-27T02:38:04;20.08;;;3.80;;
20336;SDS011;10326;53.660;10.200;2024-01-27T02:40:32;19.30;;;4.38;;
20336;SDS011;10326;53.660;10.200;2024-01-27T02:43:00;19.65;;;4.03;;
20336;SDS011;10326;53.660;10.200;2024-01-27T02:45:27;19.63;;;3.72;;
20336;SDS011;10326;53.660;10.200;2024-01-27T02:47:54;20.80;;;4.45;;
20336;SDS011;10326;53.660;10.200;2024-01-27T02:50:23;18.83;;;4.18;;
20336;SDS011;10326;53.660;10.200;2024-01-27T02:52:50;19.88;;;4.20;;
20336;SDS011;10326;53.660;10.200;2024-01-27T02:55:18;20.83;;;4.13;;
20336;SDS011;10326;53.660;10.200;2024-01-27T02:57:45;23.00;;;4.60;;
20336;SDS011;10326;53.660;10.200;2024-01-27T03:00:14;19.65;;;4.63;;
20336;SDS011;10326;53.660;10.200;2024-01-27T03:02:42;19.13;;;4.43;;
20336;SDS011;10326;53.660;10.200;2024-01-27T03:05:09;20.45;;;4.38;;
20336;SDS011;10326;53.660;10.200;2024-01-27T03:07:39;15.70;;;3.55;;
20336;SDS011;10326;53.660;10.200;2024-01-27T03:10:06;17.83;;;3.95;;
20336;SDS011;10326;53.660;10.200;2024-01-27T03:12:34;19.30;;;4.13;;
20336;SDS011;10326;53.660;10.200;2024-01-27T03:15:01;19.70;;;4.47;;
20336;SDS011;10326;53.660;10.200;2024-01-27T03:17:29;21.25;;;4.22;;
20336;SDS011;10326;53.660;10.200;2024-01-27T03:20:04;18.88;;;4.43;;
20336;SDS011;10326;53.660;10.200;2024-01-27T03:22:34;18.80;;;4.03;;
20336;SDS011;10326;53.660;10.200;2024-01-27T03:25:01;19.95;;;4.15;;
20336;SDS011;10326;53.660;10.200;2024-01-27T03:27:28;21.08;;;4.18;;
20336;SDS011;10326;53.660;10.200;2024-01-27T03:29:58;19.48;;;4.45;;
20336;SDS011;10326;53.660;10.200;2024-01-27T03:32:27;18.40;;;4.00;;
20336;SDS011;10326;53.660;10.200;2024-01-27T03:34:57;22.27;;;4.65;;
20336;SDS011;10326;53.660;10.200;2024-01-27T03:37:24;20.73;;;4.20;;
20336;SDS011;10326;53.660;10.200;2024-01-27T03:39:51;17.67;;;4.57;;
20336;SDS011;10326;53.660;10.200;2024-01-27T03:42:18;25.33;;;5.15;;
20336;SDS011;10326;53.660;10.200;2024-01-27T03:44:45;17.17;;;4.45;;
20336;SDS011;10326;53.660;10.200;2024-01-27T03:47:13;20.52;;;4.38;;
20336;SDS011;10326;53.660;10.200;2024-01-27T03:49:42;19.85;;;4.70;;
20336;SDS011;10326;53.660;10.200;2024-01-27T03:52:10;20.50;;;4.38;;
20336;SDS011;10326;53.660;10.200;2024-01-27T03:54:38;19.10;;;4.05;;
20336;SDS011;10326;53.660;10.200;2024-01-27T03:57:05;22.13;;;5.15;;
20336;SDS011;10326;53.660;10.200;2024-01-27T03:59:32;19.85;;;4.20;;
20336;SDS011;10326;53.660;10.200;2024-01-27T04:01:59;18.75;;;4.70;;
20336;SDS011;10326;53.660;10.200;2024-01-27T04:04:26;21.33;;;4.65;;
20336;SDS011;10326;53.660;10.200;2024-01-27T04:06:55;21.05;;;4.60;;
20336;SDS011;10326;53.660;10.200;2024-01-27T04:09:22;17.58;;;4.50;;
20336;SDS011;10326;53.660;10.200;2024-01-27T04:11:49;18.08;;;4.32;;
20336;SDS011;10326;53.660;10.200;2024-01-27T04:14:16;20.35;;;4.38;;
20336;SDS011;10326;53.660;10.200;2024-01-27T04:16:43;20.85;;;4.95;;
20336;SDS011;10326;53.660;10.200;2024-01-27T04:19:11;19.10;;;4.30;;
20336;SDS011;10326;53.660;10.200;2024-01-27T04:21:38;21.50;;;4.40;;
20336;SDS011;10326;53.660;10.200;2024-01-27T04:24:08;17.27;;;4.50;;
20336;SDS011;10326;53.660;10.200;2024-01-27T04:26:35;22.33;;;5.13;;
20336;SDS011;10326;53.660;10.200;2024-01-27T04:29:02;27.42;;;5.03;;
20336;SDS011;10326;53.660;10.200;2024-01-27T04:31:29;25.20;;;5.00;;
20336;SDS011;10326;53.660;10.200;2024-01-27T04:33:57;21.42;;;4.60;;
20336;SDS011;10326;53.660;10.200;2024-01-27T04:36:27;20.77;;;4.97;;
20336;SDS011;10326;53.660;10.200;2024-01-27T04:38:55;21.38;;;4.90;;
20336;SDS011;10326;53.660;10.200;2024-01-27T04:41:24;19.60;;;4.53;;
20336;SDS011;10326;53.660;10.200;2024-01-27T04:43:51;20.48;;;4.63;;
20336;SDS011;10326;53.660;10.200;2024-01-27T04:46:20;22.13;;;4.07;;
20336;SDS011;10326;53.660;10.200;2024-01-27T04:48:48;20.88;;;4.63;;
20336;SDS011;10326;53.660;10.200;2024-01-27T04:51:15;21.77;;;5.15;;
20336;SDS011;10326;53.660;10.200;2024-01-27T04:53:42;20.48;;;4.18;;
20336;SDS011;10326;53.660;10.200;2024-01-27T04:56:09;20.58;;;4.88;;
20336;SDS011;10326;53.660;10.200;2024-01-27T04:58:39;16.25;;;4.10;;
20336;SDS011;10326;53.660;10.200;2024-01-27T05:01:06;18.63;;;4.43;;
20336;SDS011;10326;53.660;10.200;2024-01-27T05:03:34;18.48;;;4.22;;
20336;SDS011;10326;53.660;10.200;2024-01-27T05:06:01;19.85;;;4.57;;
20336;SDS011;10326;53.660;10.200;2024-01-27T05:08:29;20.27;;;4.38;;
20336;SDS011;10326;53.660;10.200;2024-01-27T05:10:56;26.48;;;4.70;;
20336;SDS011;10326;53.660;10.200;2024-01-27T05:13:24;20.98;;;4.25;;
20336;SDS011;10326;53.660;10.200;2024-01-27T05:15:52;21.02;;;4.15;;
20336;SDS011;10326;53.660;10.200;2024-01-27T05:18:19;22.02;;;4.65;;
20336;SDS011;10326;53.660;10.200;2024-01-27T05:20:46;18.33;;;4.47;;
20336;SDS011;10326;53.660;10.200;2024-01-27T05:23:14;20.88;;;4.63;;
20336;SDS011;10326;53.660;10.200;2024-01-27T05:25:41;19.50;;;5.00;;
20336;SDS011;10326;53.660;10.200;2024-01-27T05:28:08;20.20;;;4.55;;
20336;SDS011;10326;53.660;10.200;2024-01-27T05:30:35;20.35;;;4.45;;
20336;SDS011;10326;53.660;10.200;2024-01-27T05:33:04;22.48;;;4.72;;
20336;SDS011;10326;53.660;10.200;2024-01-27T05:35:31;19.30;;;4.20;;
20336;SDS011;10326;53.660;10.200;2024-01-27T05:37:58;17.67;;;4.65;;
20336;SDS011;10326;53.660;10.200;2024-01-27T05:40:26;25.73;;;4.53;;
20336;SDS011;10326;53.660;10.200;2024-01-27T05:42:53;19.85;;;4.15;;
20336;SDS011;10326;53.660;10.200;2024-01-27T05:45:20;16.98;;;3.88;;
20336;SDS011;10326;53.660;10.200;2024-01-27T05:47:48;20.42;;;4.20;;
20336;SDS011;10326;53.660;10.200;2024-01-27T05:50:17;22.20;;;4.53;;
20336;SDS011;10326;53.660;10.200;2024-01-27T05:52:44;19.00;;;4.18;;
20336;SDS011;10326;53.660;10.200;2024-01-27T05:55:11;16.63;;;4.50;;
20336;SDS011;10326;53.660;10.200;2024-01-27T05:57:39;17.52;;;3.97;;
20336;SDS011;10326;53.660;10.200;2024-01-27T06:00:06;19.42;;;4.50;;
20336;SDS011;10326;53.660;10.200;2024-01-27T06:02:35;20.25;;;3.58;;
20336;SDS011;10326;53.660;10.200;2024-01-27T06:05:02;18.10;;;4.60;;
20336;SDS011;10326;53.660;10.200;2024-01-27T06:07:32;21.40;;;4.10;;
20336;SDS011;10326;53.660;10.200;2024-01-27T06:09:59;21.83;;;4.38;;
20336;SDS011;10326;53.660;10.200;2024-01-27T06:12:26;18.10;;;4.30;;
20336;SDS011;10326;53.660;10.200;2024-01-27T06:14:53;20.65;;;4.22;;
20336;SDS011;10326;53.660;10.200;2024-01-27T06:17:22;21.25;;;4.75;;
20336;SDS011;10326;53.660;10.200;2024-01-27T06:19:50;18.25;;;3.92;;
20336;SDS011;10326;53.660;10.200;2024-01-27T06:22:18;20.48;;;5.05;;
20336;SDS011;10326;53.660;10.200;2024-01-27T06:24:46;19.27;;;4.72;;
20336;SDS011;10326;53.660;10.200;2024-01-27T06:27:13;20.00;;;5.25;;
20336;SDS011;10326;53.660;10.200;2024-01-27T06:29:40;21.35;;;4.78;;
20336;SDS011;10326;53.660;10.200;2024-01-27T06:32:09;19.88;;;4.07;;
20336;SDS011;10326;53.660;10.200;2024-01-27T06:34:36;16.67;;;4.22;;
20336;SDS011;10326;53.660;10.200;2024-01-27T06:37:03;19.02;;;4.50;;
20336;SDS011;10326;53.660;10.200;2024-01-27T06:39:31;23.98;;;4.65;;
20336;SDS011;10326;53.660;10.200;2024-01-27T06:41:59;19.27;;;5.80;;
20336;SDS011;10326;53.660;10.200;2024-01-27T06:44:26;19.60;;;5.25;;
20336;SDS011;10326;53.660;10.200;2024-01-27T06:46:54;17.63;;;5.38;;
20336;SDS011;10326;53.660;10.200;2024-01-27T06:49:21;24.83;;;5.10;;
20336;SDS011;10326;53.660;10.200;2024-01-27T06:51:48;17.90;;;4.97;;
20336;SDS011;10326;53.660;10.200;2024-01-27T06:54:15;24.77;;;5.20;;
20336;SDS011;10326;53.660;10.200;2024-01-27T06:56:43;21.10;;;5.53;;
20336;SDS011;10326;53.660;10.200;2024-01-27T06:59:11;20.85;;;5.47;;
20336;SDS011;10326;53.660;10.200;2024-01-27T07:01:38;15.60;;;5.05;;
20336;SDS011;10326;53.660;10.200;2024-01-27T07:04:13;19.27;;;4.95;;
20336;SDS011;10326;53.660;10.200;2024-01-27T07:06:40;18.15;;;4.45;;
20336;SDS011;10326;53.660;10.200;2024-01-27T07:09:07;14.40;;;4.20;;
20336;SDS011;10326;53.660;10.200;2024-01-27T07:11:35;16.77;;;4.18;;
20336;SDS011;10326;53.660;10.200;2024-01-27T07:14:02;15.65;;;4.47;;
20336;SDS011;10326;53.660;10.200;2024-01-27T07:16:31;20.50;;;4.75;;
20336;SDS011;10326;53.660;10.200;2024-01-27T07:19:00;15.90;;;4.55;;
20336;SDS011;10326;53.660;10.200;2024-01-27T07:21:27;20.85;;;5.05;;
20336;SDS011;10326;53.660;10.200;2024-01-27T07:23:56;16.88;;;4.57;;
20336;SDS011;10326;53.660;10.200;2024-01-27T07:26:23;12.55;;;3.60;;
20336;SDS011;10326;53.660;10.200;2024-01-27T07:28:50;16.75;;;3.80;;
20336;SDS011;10326;53.660;10.200;2024-01-27T07:31:18;17.08;;;4.07;;
20336;SDS011;10326;53.660;10.200;2024-01-27T07:33:46;17.95;;;4.93;;
20336;SDS011;10326;53.660;10.200;2024-01-27T07:36:14;17.60;;;4.25;;
20336;SDS011;10326;53.660;10.200;2024-01-27T07:38:41;16.58;;;4.43;;
20336;SDS011;10326;53.660;10.200;2024-01-27T07:41:08;15.80;;;4.20;;
20336;SDS011;10326;53.660;10.200;2024-01-27T07:43:36;15.20;;;3.85;;
20336;SDS011;10326;53.660;10.200;2024-01-27T07:46:03;17.50;;;3.92;;
20336;SDS011;10326;53.660;10.200;2024-01-27T07:48:30;22.40;;;4.50;;
20336;SDS011;10326;53.660;10.200;2024-01-27T07:50:59;18.05;;;3.88;;
20336;SDS011;10326;53.660;10.200;2024-01-27T07:53:26;16.88;;;4.35;;
20336;SDS011;10326;53.660;10.200;2024-01-27T07:55:56;14.15;;;3.70;;
20336;SDS011;10326;53.660;10.200;2024-01-27T07:58:24;18.15;;;4.28;;
20336;SDS011;10326;53.660;10.200;2024-01-27T08:00:51;14.80;;;4.00;;
20336;SDS011;10326;53.660;10.200;2024-01-27T08:03:19;18.20;;;4.72;;
20336;SDS011;10326;53.660;10.200;2024-01-27T08:05:46;21.45;;;4.13;;
20336;SDS011;10326;53.660;10.200;2024-01-27T08:08:15;19.92;;;4.25;;
20336;SDS011;10326;53.660;10.200;2024-01-27T08:10:42;17.50;;;4.18;;
20336;SDS011;10326;53.660;10.200;2024-01-27T08:13:11;19.98;;;4.82;;
20336;SDS011;10326;53.660;10.200;2024-01-27T08:15:42;14.82;;;3.95;;
20336;SDS011;10326;53.660;10.200;2024-01-27T08:18:09;20.42;;;4.20;;
20336;SDS011;10326;53.660;10.200;2024-01-27T08:20:37;14.48;;;4.10;;
20336;SDS011;10326;53.660;10.200;2024-01-27T08:23:04;15.88;;;4.38;;
20336;SDS011;10326;53.660;10.200;2024-01-27T08:25:34;16.80;;;3.97;;
20336;SDS011;10326;53.660;10.200;2024-01-27T08:28:03;15.48;;;4.55;;
20336;SDS011;10326;53.660;10.200;2024-01-27T08:30:32;14.70;;;4.43;;
20336;SDS011;10326;53.660;10.200;2024-01-27T08:33:00;15.98;;;4.03;;
20336;SDS011;10326;53.660;10.200;2024-01-27T08:35:27;14.73;;;3.65;;
20336;SDS011;10326;53.660;10.200;2024-01-27T08:37:54;14.73;;;3.88;;
20336;SDS011;10326;53.660;10.200;2024-01-27T08:40:23;15.77;;;4.38;;
20336;SDS011;10326;53.660;10.200;2024-01-27T08:43:20;13.55;;;3.58;;
20336;SDS011;10326;53.660;10.200;2024-01-27T08:49:15;17.23;;;4.43;;
20336;SDS011;10326;53.660;10.200;2024-01-27T08:51:59;20.42;;;4.28;;
20336;SDS011;10326;53.660;10.200;2024-01-27T08:54:45;16.52;;;3.80;;
20336;SDS011;10326;53.660;10.200;2024-01-27T08:57:36;15.00;;;4.30;;
20336;SDS011;10326;53.660;10.200;2024-01-27T09:04:02;18.92;;;4.80;;
20336;SDS011;10326;53.660;10.200;2024-01-27T09:06:29;16.88;;;4.47;;
20336;SDS011;10326;53.660;10.200;2024-01-27T09:08:56;19.42;;;4.35;;
20336;SDS011;10326;53.660;10.200;2024-01-27T09:11:23;14.63;;;4.05;;
20336;SDS011;10326;53.660;10.200;2024-01-27T09:13:54;16.25;;;3.95;;
20336;SDS011;10326;53.660;10.200;2024-01-27T09:16:21;13.85;;;4.30;;
20336;SDS011;10326;53.660;10.200;2024-01-27T09:18:51;15.63;;;4.65;;
20336;SDS011;10326;53.660;10.200;2024-01-27T09:21:20;13.40;;;4.05;;
20336;SDS011;10326;53.660;10.200;2024-01-27T09:24:11;13.70;;;4.55;;
20336;SDS011;10326;53.660;10.200;2024-01-27T09:26:55;15.02;;;4.03;;
20336;SDS011;10326;53.660;10.200;2024-01-27T09:29:25;17.55;;;4.20;;
20336;SDS011;10326;53.660;10.200;2024-01-27T09:32:04;15.48;;;4.40;;
20336;SDS011;10326;53.660;10.200;2024-01-27T09:34:32;13.50;;;3.63;;
20336;SDS011;10326;53.660;10.200;2024-01-27T09:37:01;17.58;;;4.07;;
20336;SDS011;10326;53.660;10.200;2024-01-27T09:39:36;15.23;;;3.80;;
20336;SDS011;10326;53.660;10.200;2024-01-27T09:42:04;18.40;;;4.30;;
20336;SDS011;10326;53.660;10.200;2024-01-27T09:44:36;14.25;;;4.38;;
20336;SDS011;10326;53.660;10.200;2024-01-27T09:47:04;16.63;;;4.35;;
20336;SDS011;10326;53.660;10.200;2024-01-27T09:49:32;15.77;;;3.97;;
20336;SDS011;10326;53.660;10.200;2024-01-27T09:52:00;11.68;;;3.72;;
20336;SDS011;10326;53.660;10.200;2024-01-27T09:54:28;15.02;;;4.80;;
20336;SDS011;10326;53.660;10.200;2024-01-27T09:57:04;14.27;;;3.88;;
20336;SDS011;10326;53.660;10.200;2024-01-27T09:59:32;14.73;;;4.13;;
20336;SDS011;10326;53.660;10.200;2024-01-27T10:02:03;12.15;;;3.67;;
20336;SDS011;10326;53.660;10.200;2024-01-27T10:04:33;12.05;;;3.63;;
20336;SDS011;10326;53.660;10.200;2024-01-27T10:07:00;12.15;;;4.05;;
20336;SDS011;10326;53.660;10.200;2024-01-27T10:09:32;14.40;;;3.55;;
20336;SDS011;10326;53.660;10.200;2024-01-27T10:12:05;13.82;;;3.78;;
20336;SDS011;10326;53.660;10.200;2024-01-27T10:14:38;17.63;;;3.83;;
20336;SDS011;10326;53.660;10.200;2024-01-27T10:17:10;16.27;;;4.03;;
20336;SDS011;10326;53.660;10.200;2024-01-27T10:19:40;11.98;;;3.78;;
20336;SDS011;10326;53.660;10.200;2024-01-27T10:22:12;11.55;;;3.55;;
20336;SDS011;10326;53.660;10.200;2024-01-27T10:24:54;12.98;;;3.60;;
20336;SDS011;10326;53.660;10.200;2024-01-27T10:27:22;12.13;;;3.83;;
20336;SDS011;10326;53.660;10.200;2024-01-27T10:29:52;12.65;;;3.35;;
20336;SDS011;10326;53.660;10.200;2024-01-27T10:32:21;12.55;;;3.78;;
20336;SDS011;10326;53.660;10.200;2024-01-27T10:35:01;15.60;;;4.32;;
20336;SDS011;10326;53.660;10.200;2024-01-27T10:37:30;13.27;;;3.78;;
20336;SDS011;10326;53.660;10.200;2024-01-27T10:40:29;15.10;;;4.50;;
20336;SDS011;10326;53.660;10.200;2024-01-27T10:43:08;14.68;;;3.30;;
20336;SDS011;10326;53.660;10.200;2024-01-27T10:45:45;14.98;;;3.65;;
20336;SDS011;10326;53.660;10.200;2024-01-27T10:51:54;13.77;;;3.67;;
20336;SDS011;10326;53.660;10.200;2024-01-27T10:54:51;12.82;;;3.47;;
20336;SDS011;10326;53.660;10.200;2024-01-27T11:01:39;16.88;;;3.33;;
20336;SDS011;10326;53.660;10.200;2024-01-27T11:04:46;11.40;;;3.72;;
20336;SDS011;10326;53.660;10.200;2024-01-27T11:08:03;12.30;;;3.30;;
20336;SDS011;10326;53.660;10.200;2024-01-27T11:13:22;14.32;;;3.85;;
20336;SDS011;10326;53.660;10.200;2024-01-27T11:14:19;13.02;;;3.80;;
20336;SDS011;10326;53.660;10.200;2024-01-27T11:30:30;11.30;;;3.28;;
20336;SDS011;10326;53.660;10.200;2024-01-27T11:37:09;12.02;;;3.60;;
20336;SDS011;10326;53.660;10.200;2024-01-27T11:40:02;9.27;;;3.13;;
20336;SDS011;10326;53.660;10.200;2024-01-27T11:43:57;13.63;;;4.05;;
20336;SDS011;10326;53.660;10.200;2024-01-27T11:46:51;10.60;;;3.20;;
20336;SDS011;10326;53.660;10.200;2024-01-27T11:49:58;12.20;;;3.13;;
20336;SDS011;10326;53.660;10.200;2024-01-27T11:52:42;8.90;;;3.10;;
20336;SDS011;10326;53.660;10.200;2024-01-27T11:55:09;12.05;;;3.30;;
20336;SDS011;10326;53.660;10.200;2024-01-27T11:57:39;12.85;;;3.70;;
20336;SDS011;10326;53.660;10.200;2024-01-27T12:04:29;12.25;;;2.97;;
20336;SDS011;10326;53.660;10.200;2024-01-27T12:07:02;10.43;;;2.60;;
20336;SDS011;10326;53.660;10.200;2024-01-27T12:09:33;11.02;;;3.17;;
20336;SDS011;10326;53.660;10.200;2024-01-27T12:12:02;11.25;;;3.40;;
20336;SDS011;10326;53.660;10.200;2024-01-27T12:14:39;9.45;;;2.97;;
20336;SDS011;10326;53.660;10.200;2024-01-27T12:17:16;11.30;;;2.95;;
20336;SDS011;10326;53.660;10.200;2024-01-27T12:19:47;11.07;;;2.97;;
20336;SDS011;10326;53.660;10.200;2024-01-27T12:22:21;10.40;;;2.53;;
20336;SDS011;10326;53.660;10.200;2024-01-27T12:24:53;10.65;;;3.53;;
20336;SDS011;10326;53.660;10.200;2024-01-27T12:27:23;8.18;;;2.65;;
20336;SDS011;10326;53.660;10.200;2024-01-27T12:29:53;9.32;;;2.63;;
20336;SDS011;10326;53.660;10.200;2024-01-27T12:32:33;10.75;;;3.45;;
20336;SDS011;10326;53.660;10.200;2024-01-27T12:35:09;11.55;;;2.90;;
20336;SDS011;10326;53.660;10.200;2024-01-27T12:37:49;8.93;;;2.88;;
20336;SDS011;10326;53.660;10.200;2024-01-27T12:40:16;13.00;;;3.33;;
20336;SDS011;10326;53.660;10.200;2024-01-27T12:42:44;8.00;;;2.55;;
20336;SDS011;10326;53.660;10.200;2024-01-27T12:45:15;9.50;;;2.80;;
20336;SDS011;10326;53.660;10.200;2024-01-27T12:47:44;10.38;;;2.83;;
20336;SDS011;10326;53.660;10.200;2024-01-27T12:54:11;7.88;;;2.22;;
20336;SDS011;10326;53.660;10.200;2024-01-27T12:56:58;13.02;;;3.17;;
20336;SDS011;10326;53.660;10.200;2024-01-27T13:00:24;9.07;;;2.40;;
20336;SDS011;10326;53.660;10.200;2024-01-27T13:02:55;6.45;;;2.55;;
20336;SDS011;10326;53.660;10.200;2024-01-27T13:05:23;9.82;;;2.78;;
20336;SDS011;10326;53.660;10.200;2024-01-27T13:08:16;11.15;;;2.30;;
20336;SDS011;10326;53.660;10.200;2024-01-27T13:10:57;8.50;;;2.40;;
20336;SDS011;10326;53.660;10.200;2024-01-27T13:13:41;8.75;;;2.53;;
20336;SDS011;10326;53.660;10.200;2024-01-27T13:16:21;13.02;;;3.33;;
20336;SDS011;10326;53.660;10.200;2024-01-27T13:21:54;11.60;;;2.58;;
20336;SDS011;10326;53.660;10.200;2024-01-27T13:25:00;10.57;;;2.40;;
20336;SDS011;10326;53.660;10.200;2024-01-27T13:27:42;9.20;;;2.30;;
20336;SDS011;10326;53.660;10.200;2024-01-27T13:30:53;8.68;;;2.38;;
20336;SDS011;10326;53.660;10.200;2024-01-27T13:33:24;7.47;;;2.58;;
20336;SDS011;10326;53.660;10.200;2024-01-27T13:36:10;10.10;;;2.38;;
20336;SDS011;10326;53.660;10.200;2024-01-27T13:38:48;8.98;;;3.08;;
20336;SDS011;10326;53.660;10.200;2024-01-27T13:41:41;9.02;;;2.55;;
20336;SDS011;10326;53.660;10.200;2024-01-27T13:44:18;12.30;;;3.03;;
20336;SDS011;10326;53.660;10.200;2024-01-27T13:47:06;8.93;;;2.70;;
20336;SDS011;10326;53.660;10.200;2024-01-27T13:49:59;8.80;;;2.88;;
20336;SDS011;10326;53.660;10.200;2024-01-27T13:52:51;7.85;;;2.40;;
20336;SDS011;10326;53.660;10.200;2024-01-27T13:55:24;10.50;;;2.85;;
20336;SDS011;10326;53.660;10.200;2024-01-27T14:02:34;12.27;;;2.80;;
20336;SDS011;10326;53.660;10.200;2024-01-27T14:08:45;13.23;;;3.90;;
20336;SDS011;10326;53.660;10.200;2024-01-27T14:14:41;13.68;;;3.65;;
20336;SDS011;10326;53.660;10.200;2024-01-27T14:17:10;11.02;;;3.45;;
20336;SDS011;10326;53.660;10.200;2024-01-27T14:23:58;11.10;;;3.70;;
20336;SDS011;10326;53.660;10.200;2024-01-27T14:58:53;11.82;;;3.42;;
20336;SDS011;10326;53.660;10.200;2024-01-27T19:38:12;14.40;;;5.85;;
20336;SDS011;10326;53.660;10.200;2024-01-27T19:40:39;10.23;;;5.65;;
20336;SDS011;10326;53.660;10.200;2024-01-27T19:43:06;9.70;;;5.35;;
20336;SDS011;10326;53.660;10.200;2024-01-27T19:45:33;12.57;;;5.72;;
20336;SDS011;10326;53.660;10.200;2024-01-27T19:48:00;11.60;;;5.60;;
20336;SDS011;10326;53.660;10.200;2024-01-27T19:50:27;12.48;;;5.43;;
20336;SDS011;10326;53.660;10.200;2024-01-27T19:52:54;11.20;;;6.20;;
20336;SDS011;10326;53.660;10.200;2024-01-27T19:55:22;11.90;;;5.88;;
20336;SDS011;10326;53.660;10.200;2024-01-27T19:57:49;12.27;;;5.90;;
20336;SDS011;10326;53.660;10.200;2024-01-27T20:00:16;12.50;;;6.60;;
20336;SDS011;10326;53.660;10.200;2024-01-27T20:02:44;13.10;;;5.65;;
20336;SDS011;10326;53.660;10.200;2024-01-27T20:05:11;12.63;;;6.43;;
20336;SDS011;10326;53.660;10.200;2024-01-27T20:07:38;13.88;;;6.00;;
20336;SDS011;10326;53.660;10.200;2024-01-27T20:10:05;13.82;;;6.00;;
20336;SDS011;10326;53.660;10.200;2024-01-27T20:12:35;12.30;;;6.43;;
20336;SDS011;10326;53.660;10.200;2024-01-27T20:15:03;12.40;;;6.50;;
20336;SDS011;10326;53.660;10.200;2024-01-27T20:17:31;12.40;;;6.85;;
20336;SDS011;10326;53.660;10.200;2024-01-27T20:19:59;14.15;;;6.05;;
20336;SDS011;10326;53.660;10.200;2024-01-27T20:22:29;13.05;;;6.95;;
20336;SDS011;10326;53.660;10.200;2024-01-27T20:24:56;11.77;;;7.18;;
20336;SDS011;10326;53.660;10.200;2024-01-27T20:27:24;11.52;;;7.13;;
20336;SDS011;10326;53.660;10.200;2024-01-27T20:29:52;12.35;;;6.25;;
20336;SDS011;10326;53.660;10.200;2024-01-27T20:32:19;16.30;;;6.80;;
20336;SDS011;10326;53.660;10.200;2024-01-27T20:34:46;11.65;;;6.43;;
20336;SDS011;10326;53.660;10.200;2024-01-27T20:37:13;13.35;;;6.78;;
20336;SDS011;10326;53.660;10.200;2024-01-27T20:39:41;12.48;;;6.93;;
20336;SDS011;10326;53.660;10.200;2024-01-27T20:42:09;15.90;;;7.20;;
20336;SDS011;10326;53.660;10.200;2024-01-27T20:44:36;12.13;;;6.90;;
20336;SDS011;10326;53.660;10.200;2024-01-27T20:47:05;15.70;;;7.75;;
20336;SDS011;10326;53.660;10.200;2024-01-27T20:49:32;11.57;;;6.38;;
20336;SDS011;10326;53.660;10.200;2024-01-27T20:51:59;14.05;;;6.72;;
20336;SDS011;10326;53.660;10.200;2024-01-27T20:54:26;13.35;;;7.00;;